< < Back
Terminal Aerodrome Forecast


Current Version              Previous Versions:   1  2  3  4  5  6  7  8  9  

Terminal Aerodrome Forecast

071
FTUS42 KJAX 181700
TAFJAX
TAF
KJAX 181721Z 1818/1918 VRB04KT P6SM BKN200
     FM182300 00000KT P6SM SCT200
     FM191500 02004KT P6SM FEW050 BKN200=

Latest METAR

374
SAUS80 KWBC 182000
MTRJAX
METAR KJAX 181956Z 32006KT 10SM FEW180 BKN250 17/06 A3009 RMK AO2 SLP190
T01720061


USA.gov is the U.S. government's official web portal to all federal, state and local government web resources and services.